Terminal Aerodrome Forecast
Issued by NWS

Home | Current Version | Previous Version | Text Only | Print | Product List | Glossary On
Versions: 1 2 3 4 5 6 7 8 9 10 11 12 13 14 15
000
FTUS44 KCRP 251100
TAFALI
TAF
KALI 251130Z 2512/2612 00000KT 6SM BR FEW015 SCT250
      TEMPO 2512/2513 3SM BR
     FM251400 17007KT P6SM SCT040 BKN250
     FM251900 14011KT P6SM VCTS SCT050CB BKN250
     FM260200 15007KT P6SM FEW030 SCT250=

USA.gov is the U.S. government's official web portal to all federal, state and local government web resources and services.